Kezdőlap
METAR-TAF:

METAR-TAF

Repülőterek :

Taos Regional Airport

Taos, Új-Mexikó, Amerikai Egyesült Államok

földrajzi szélesség: 36-27N, földrajzi hosszúság: 105-40W, magasság: 2161 m

Jelenlegi meteorológiai megfigyelések

A jelentés 33 perccel ezelõtt készült, 00:56 UTC
Nyugati szél 14 kt széllökések: 19 kt
Hőmérséklet 22°C
Páratartalom 15%
Légköri nyomás 1020 hPa
Látótávolság: 16.1 km
Derült ég

METAR: KSKX 270056Z AUTO 26014G19KT 10SM CLR 22/M06 A3011 RMK AO2 SLP147 T02171061

Idő: 19:29 (01:29 UTC)


TAF: hiányzik

Meteorológiai megfigyelések és előrejelzések több, mint 4000 repülőtéren (METAR és TAF jelentéseket).

A térképen piros és sárga pontok jelzik az elérhető meteorológiai állomásokat.

Mozgassa az egeret a pont fölött, hogy megjelenjen az állomás neve.

Azután kattintson az időjárási megfigyelések és előrejelzések megtekintéséhez.

A térkép megváltoztatása: kattintson a fekete keresztel jelölt zöld gombra ráközelítéshez, a vonallal jelölt zöld gombra távolításhoz, vagy a zöld nyilakra a szomszédos térképek eléréséhez.


METAR-TAF: